Time;durP1;ratioP1;P1;durP2;ratioP2;P2;SDS_P1;SDS_P2;PMS_P1;PMS_P2;Temp;Humidity;BMP_temperature;BMP_pressure;BME280_temperature;BME280_humidity;BME280_pressure;Samples;Min_cycle;Max_cycle;Signal;HPM_P1;HPM_P2
2022/03/19 00:00:36;;;;;;;49.87;32.93;;;;;;;7.44;62.86;101382.03;4197464;28;20204;-62
2022/03/19 00:02:38;;;;;;;48.70;30.70;;;;;;;6.88;63.13;101356.41;4198926;28;20660;-59
2022/03/19 00:04:39;;;;;;;44.53;32.77;;;;;;;7.80;62.81;101376.16;4206960;28;20226;-59
2022/03/19 00:06:45;;;;;;;49.37;33.40;;;;;;;8.16;62.14;101345.50;4196116;28;20266;-61
2022/03/19 00:08:47;;;;;;;50.60;33.37;;;;;;;8.82;59.53;101299.50;4204789;28;20263;-62
2022/03/19 00:10:48;;;;;;;50.40;33.37;;;;;;;8.14;60.98;101362.47;4209578;28;20301;-61
2022/03/19 00:12:50;;;;;;;46.90;32.57;;;;;;;8.46;60.45;101344.41;4203564;28;20719;-61
2022/03/19 00:14:52;;;;;;;51.17;32.93;;;;;;;8.44;60.90;101359.56;4205324;28;20273;-63
2022/03/19 00:16:53;;;;;;;47.93;34.40;;;;;;;7.93;61.44;101376.19;4203922;28;20269;-61
2022/03/19 00:18:55;;;;;;;47.97;32.47;;;;;;;8.19;61.09;101357.72;4195611;28;20239;-62
2022/03/19 00:20:57;;;;;;;45.33;31.20;;;;;;;8.67;59.87;101328.78;4208823;28;20329;-61
2022/03/19 00:22:59;;;;;;;44.73;31.23;;;;;;;7.53;63.29;101397.34;4208556;28;20598;-62
2022/03/19 00:25:00;;;;;;;49.30;32.23;;;;;;;8.78;59.69;101309.47;4201718;28;20234;-62
2022/03/19 00:27:02;;;;;;;45.27;32.73;;;;;;;8.55;60.47;101341.09;4209509;28;20703;-60
2022/03/19 00:29:04;;;;;;;45.87;31.23;;;;;;;7.48;62.67;101386.22;4193795;28;20266;-62
2022/03/19 00:31:07;;;;;;;46.23;31.03;;;;;;;7.36;63.46;101392.28;4206799;28;20262;-62
2022/03/19 00:33:09;;;;;;;49.67;32.33;;;;;;;8.25;61.78;101341.38;4201428;28;20673;-61
2022/03/19 00:35:10;;;;;;;47.63;32.33;;;;;;;7.18;62.65;101355.47;4207285;28;20599;-61
2022/03/19 00:37:12;;;;;;;48.77;32.27;;;;;;;8.27;60.89;101339.50;4206002;28;20275;-61
2022/03/19 00:39:14;;;;;;;45.63;31.90;;;;;;;7.96;61.45;101370.69;4206571;28;20612;-61
2022/03/19 00:41:16;;;;;;;46.80;31.93;;;;;;;8.20;60.57;101352.31;4200750;28;20858;-60
2022/03/19 00:43:21;;;;;;;45.47;31.30;;;;;;;8.20;61.79;101344.38;4193514;28;20319;-60
2022/03/19 00:45:23;;;;;;;46.67;32.17;;;;;;;7.35;63.21;101393.22;4203633;28;20258;-62
2022/03/19 00:47:24;;;;;;;46.67;32.83;;;;;;;8.31;60.82;101338.31;4201823;28;20262;-62
2022/03/19 00:49:26;;;;;;;47.93;32.07;;;;;;;8.21;61.33;101355.81;4209455;28;20218;-62
2022/03/19 00:51:27;;;;;;;49.33;33.67;;;;;;;7.89;61.36;101369.41;4208244;28;20310;-60
2022/03/19 00:53:29;;;;;;;47.30;31.30;;;;;;;7.99;60.83;101348.47;4204057;28;20255;-62
2022/03/19 00:55:31;;;;;;;47.57;32.37;;;;;;;7.71;62.71;101370.63;4200850;28;20273;-62
2022/03/19 00:57:44;;;;;;;44.10;30.47;;;;;;;8.13;61.42;101336.94;4200939;28;20259;-62
2022/03/19 00:59:46;;;;;;;44.43;31.77;;;;;;;8.04;61.22;101356.94;4209127;28;20229;-62
2022/03/19 01:01:48;;;;;;;49.67;32.80;;;;;;;8.36;60.24;101335.38;4198724;28;20689;-61
2022/03/19 01:03:49;;;;;;;42.80;31.13;;;;;;;8.48;60.51;101341.66;4202565;28;20234;-62
2022/03/19 01:05:51;;;;;;;46.90;30.47;;;;;;;7.65;61.63;101346.25;4207583;28;20274;-59
2022/03/19 01:07:55;;;;;;;48.73;32.60;;;;;;;8.63;59.96;101319.38;4202249;28;20336;-63
2022/03/19 01:09:56;;;;;;;44.33;30.87;;;;;;;8.12;61.34;101345.81;4194420;28;20235;-61
2022/03/19 01:11:58;;;;;;;48.00;30.97;;;;;;;8.28;60.40;101322.63;4208739;28;20269;-62
2022/03/19 01:14:00;;;;;;;45.83;32.90;;;;;;;7.69;62.38;101393.72;4200351;28;20787;-61
2022/03/19 01:16:02;;;;;;;46.50;32.93;;;;;;;7.21;62.12;101347.34;4208627;28;20341;-62
2022/03/19 01:18:05;;;;;;;42.60;29.87;;;;;;;7.86;60.98;101353.72;4198327;28;20231;-63
2022/03/19 01:20:08;;;;;;;45.50;31.53;;;;;;;8.51;60.21;101320.22;4198917;28;20284;-59
2022/03/19 01:22:10;;;;;;;44.23;30.67;;;;;;;7.79;60.87;101340.03;4198850;28;20644;-62
2022/03/19 01:24:11;;;;;;;47.43;30.73;;;;;;;8.44;60.40;101329.53;4208951;28;20713;-61
2022/03/19 01:26:13;;;;;;;46.47;31.40;;;;;;;8.20;60.61;101341.72;4195184;28;20752;-62
2022/03/19 01:28:15;;;;;;;44.20;31.53;;;;;;;8.02;61.21;101358.84;4200403;28;20301;-61
2022/03/19 01:30:21;;;;;;;42.77;30.63;;;;;;;7.78;61.09;101348.06;4209537;28;20231;-61
2022/03/19 01:32:23;;;;;;;46.37;30.33;;;;;;;8.23;60.55;101324.75;4205581;28;20248;-60
2022/03/19 01:34:24;;;;;;;47.40;29.33;;;;;;;8.40;60.36;101326.25;4195077;28;20329;-62
2022/03/19 01:36:26;;;;;;;43.47;30.63;;;;;;;8.10;61.04;101353.84;4209046;28;20254;-61
2022/03/19 01:38:28;;;;;;;44.07;30.93;;;;;;;7.87;61.79;101358.06;4200429;28;20254;-60
2022/03/19 01:40:29;;;;;;;44.43;30.47;;;;;;;7.70;62.29;101369.78;4208963;28;20287;-61
2022/03/19 01:42:33;;;;;;;41.40;28.67;;;;;;;7.59;62.00;101354.56;4203751;28;20206;-61
2022/03/19 01:44:35;;;;;;;43.27;30.27;;;;;;;7.91;61.48;101338.38;4191629;28;20270;-61
2022/03/19 01:46:58;;;;;;;44.57;30.50;;;;;;;7.58;62.56;101379.38;4205052;28;20264;-62
2022/03/19 01:49:00;;;;;;;43.63;30.20;;;;;;;8.38;60.27;101317.56;4200278;28;20609;-62
2022/03/19 01:51:01;;;;;;;40.63;29.23;;;;;;;8.14;60.23;101336.81;4200416;28;20318;-60
2022/03/19 01:53:03;;;;;;;44.73;30.43;;;;;;;8.20;60.28;101322.28;4198823;28;20261;-60
2022/03/19 01:55:06;;;;;;;45.07;29.87;;;;;;;7.96;61.31;101367.19;4201881;28;20836;-61
2022/03/19 01:57:10;;;;;;;46.83;30.50;;;;;;;7.76;61.64;101356.13;4199224;28;20644;-59
2022/03/19 01:59:13;;;;;;;45.23;29.07;;;;;;;7.57;62.37;101382.97;4196694;28;20274;-60
2022/03/19 02:01:14;;;;;;;45.07;29.70;;;;;;;7.75;62.23;101365.03;4209034;28;20688;-61
2022/03/19 02:03:16;;;;;;;40.63;28.00;;;;;;;6.30;64.63;101333.56;4206073;28;20230;-61
2022/03/19 02:05:23;;;;;;;40.80;29.07;;;;;;;7.38;62.49;101363.91;4201910;28;20239;-61
2022/03/19 02:07:25;;;;;;;43.23;28.17;;;;;;;7.51;62.76;101358.69;4205649;28;20237;-61
2022/03/19 02:09:28;;;;;;;41.47;28.43;;;;;;;8.12;61.40;101303.41;4203039;28;20657;-60
2022/03/19 02:11:30;;;;;;;44.53;28.10;;;;;;;7.74;61.57;101336.00;4199483;28;20674;-61
2022/03/19 02:13:32;;;;;;;40.60;28.67;;;;;;;8.27;60.92;101306.81;4203616;28;20517;-61
2022/03/19 02:15:33;;;;;;;46.63;29.63;;;;;;;8.10;60.66;101303.53;4205599;28;20321;-60
2022/03/19 02:17:35;;;;;;;41.30;28.77;;;;;;;8.44;60.88;101311.84;4205616;28;20725;-61
2022/03/19 02:19:51;;;;;;;45.33;29.67;;;;;;;6.59;63.48;101339.72;4205768;28;20226;-61
2022/03/19 02:21:52;;;;;;;41.50;29.00;;;;;;;7.29;63.48;101373.28;4198787;28;20263;-61
2022/03/19 02:26:19;;;;;;;40.77;28.60;;;;;;;8.04;61.52;101309.25;4194370;28;20319;-59
2022/03/19 02:28:20;;;;;;;40.33;27.80;;;;;;;8.16;60.54;101295.16;4202032;28;20323;-61
2022/03/19 02:30:22;;;;;;;40.47;29.40;;;;;;;7.57;61.50;101329.16;4208401;28;20258;-62
2022/03/19 02:32:24;;;;;;;40.40;29.33;;;;;;;7.45;62.18;101354.63;4193063;28;20324;-60
2022/03/19 02:34:26;;;;;;;43.40;30.27;;;;;;;7.96;61.51;101320.38;4207504;28;20355;-63
2022/03/19 02:36:27;;;;;;;39.03;28.67;;;;;;;8.38;60.01;101283.13;4208015;28;20254;-60
2022/03/19 02:38:29;;;;;;;44.13;29.40;;;;;;;7.69;61.09;101319.56;4199232;28;20241;-61
2022/03/19 02:40:31;;;;;;;40.37;28.37;;;;;;;7.74;61.72;101343.94;4198563;28;20755;-62
2022/03/19 02:42:32;;;;;;;39.33;27.10;;;;;;;8.28;60.56;101303.22;4202311;28;20693;-62
2022/03/19 02:44:35;;;;;;;42.37;28.10;;;;;;;8.47;59.81;101284.28;4194769;28;20301;-61
2022/03/19 02:46:43;;;;;;;44.03;28.93;;;;;;;7.84;60.71;101310.59;4207661;28;20710;-61
2022/03/19 02:48:45;;;;;;;43.50;29.33;;;;;;;7.62;61.56;101337.66;4199649;28;20230;-62
2022/03/19 02:50:47;;;;;;;43.87;27.93;;;;;;;8.13;59.89;101278.63;4207712;28;20254;-61
2022/03/19 02:52:48;;;;;;;39.23;26.40;;;;;;;6.97;64.14;101370.03;4200999;28;20611;-59
2022/03/19 02:54:50;;;;;;;43.07;29.37;;;;;;;7.49;61.83;101331.47;4206116;28;20349;-59
2022/03/19 02:56:53;;;;;;;40.40;27.90;;;;;;;7.79;61.11;101304.75;4199554;28;20322;-59
2022/03/19 02:58:55;;;;;;;42.63;28.43;;;;;;;7.10;62.99;101350.66;4207051;28;20234;-59
2022/03/19 03:00:56;;;;;;;43.00;29.10;;;;;;;7.30;63.24;101335.31;4208199;28;20234;-62
2022/03/19 03:02:59;;;;;;;39.43;27.83;;;;;;;7.22;62.90;101330.50;4199369;28;20239;-61
2022/03/19 03:05:01;;;;;;;43.10;27.20;;;;;;;7.36;62.66;101313.75;4198833;28;20238;-59
2022/03/19 03:07:03;;;;;;;38.30;28.43;;;;;;;7.74;61.58;101310.34;4207714;28;20262;-61
2022/03/19 03:09:05;;;;;;;39.90;28.20;;;;;;;6.22;65.08;101341.94;4191060;28;20322;-61
2022/03/19 03:11:07;;;;;;;42.40;28.87;;;;;;;7.73;62.61;101297.22;4207442;28;20325;-62
2022/03/19 03:13:08;;;;;;;39.27;27.57;;;;;;;7.94;61.06;101277.25;4199036;28;20270;-61
2022/03/19 03:15:10;;;;;;;42.63;28.97;;;;;;;8.04;59.95;101277.47;4207269;28;20604;-59
2022/03/19 03:17:12;;;;;;;43.13;28.30;;;;;;;7.57;61.49;101316.78;4202089;28;20266;-57
2022/03/19 03:19:15;;;;;;;42.67;27.70;;;;;;;7.50;62.28;101325.25;4207791;28;20265;-60
2022/03/19 03:21:17;;;;;;;40.23;27.33;;;;;;;8.07;61.04;101285.22;4207234;28;20261;-61
2022/03/19 03:23:18;;;;;;;44.30;29.17;;;;;;;7.10;63.62;101357.75;4198782;28;20268;-59
2022/03/19 03:25:20;;;;;;;39.20;27.37;;;;;;;8.12;60.89;101287.53;4207366;28;20377;-61
2022/03/19 03:27:22;;;;;;;42.00;28.80;;;;;;;7.84;61.29;101292.06;4204391;28;20313;-59
2022/03/19 03:29:23;;;;;;;38.87;27.53;;;;;;;7.73;61.18;101299.88;4202504;28;20338;-62
2022/03/19 03:31:26;;;;;;;42.43;29.10;;;;;;;8.09;59.92;101280.66;4196884;28;20664;-61
2022/03/19 03:33:28;;;;;;;42.97;28.90;;;;;;;6.88;62.91;101335.25;4200272;28;20227;-60
2022/03/19 03:35:30;;;;;;;43.20;28.03;;;;;;;7.70;61.93;101311.53;4204698;28;20732;-61
2022/03/19 03:37:31;;;;;;;40.77;27.97;;;;;;;7.72;61.32;101306.97;4199310;28;20233;-62
2022/03/19 03:39:33;;;;;;;42.10;27.60;;;;;;;7.45;62.26;101336.13;4198894;28;20727;-65
2022/03/19 03:41:35;;;;;;;44.07;28.17;;;;;;;8.09;60.37;101279.81;4207701;28;20250;-61
2022/03/19 03:43:36;;;;;;;40.83;28.47;;;;;;;7.70;61.74;101302.72;4198778;28;20333;-63
2022/03/19 03:45:38;;;;;;;40.67;28.73;;;;;;;8.10;60.56;101279.69;4203216;28;20327;-61
2022/03/19 03:47:40;;;;;;;42.90;29.53;;;;;;;7.73;61.62;101315.75;4208527;28;20258;-59
2022/03/19 03:49:41;;;;;;;38.13;27.20;;;;;;;8.05;60.64;101284.44;4203806;28;20328;-61
2022/03/19 03:51:43;;;;;;;39.33;27.87;;;;;;;7.32;61.14;101308.75;4207743;28;20321;-61
2022/03/19 03:53:45;;;;;;;49.00;29.07;;;;;;;7.93;60.42;101278.19;4198177;28;20266;-59
2022/03/19 03:55:47;;;;;;;40.53;28.27;;;;;;;8.01;59.48;101267.91;4199907;28;20284;-62
2022/03/19 03:57:48;;;;;;;43.13;28.87;;;;;;;8.01;60.14;101297.06;4203525;28;20309;-61
2022/03/19 03:59:50;;;;;;;42.20;28.53;;;;;;;7.69;60.59;101307.16;4209172;28;20254;-62
2022/03/19 04:01:52;;;;;;;39.93;28.43;;;;;;;7.22;61.55;101301.38;4210334;28;20257;-62
2022/03/19 04:03:54;;;;;;;39.90;28.43;;;;;;;7.98;60.47;101277.88;4194371;28;20289;-58
2022/03/19 04:05:56;;;;;;;39.83;28.47;;;;;;;7.80;60.10;101278.19;4208926;28;20676;-60
2022/03/19 04:07:57;;;;;;;47.07;30.30;;;;;;;7.48;61.73;101322.69;4210286;28;20526;-60
2022/03/19 04:09:59;;;;;;;43.97;28.07;;;;;;;7.47;61.86;101313.88;4201848;28;20710;-59
2022/03/19 04:12:03;;;;;;;44.03;29.60;;;;;;;7.88;60.60;101277.66;4210019;28;20786;-60
2022/03/19 04:14:05;;;;;;;45.67;29.23;;;;;;;7.98;60.26;101277.88;4201484;28;20234;-62
2022/03/19 04:16:06;;;;;;;43.00;30.40;;;;;;;7.39;61.81;101320.63;4193553;28;20723;-61
2022/03/19 04:18:08;;;;;;;39.63;27.93;;;;;;;7.42;61.33;101301.91;4204592;28;20223;-60
2022/03/19 04:20:11;;;;;;;41.80;28.97;;;;;;;6.86;63.43;101341.59;4200197;28;20261;-62
2022/03/19 04:22:13;;;;;;;42.07;28.80;;;;;;;7.30;62.39;101302.72;4208359;28;20223;-60
2022/03/19 04:24:15;;;;;;;41.03;28.37;;;;;;;7.66;61.23;101286.19;4203154;28;20281;-62
2022/03/19 04:26:16;;;;;;;46.57;29.87;;;;;;;7.27;62.94;101301.94;4210108;28;20304;-60
2022/03/19 04:28:18;;;;;;;46.50;29.10;;;;;;;7.87;60.96;101251.25;4200861;28;20323;-58
2022/03/19 04:30:22;;;;;;;44.53;29.93;;;;;;;7.07;63.07;101315.59;4210071;28;20326;-62
2022/03/19 04:32:23;;;;;;;39.80;27.47;;;;;;;7.03;63.05;101322.06;4206895;28;20231;-60
2022/03/19 04:34:25;;;;;;;40.73;28.47;;;;;;;6.52;63.49;101304.03;4203498;28;20329;-61
2022/03/19 04:36:30;;;;;;;40.93;27.37;;;;;;;6.68;63.40;101336.47;4210417;28;20272;-62
2022/03/19 04:38:32;;;;;;;41.87;28.53;;;;;;;6.93;63.24;101310.34;4201328;28;20227;-59
2022/03/19 04:40:34;;;;;;;44.43;28.13;;;;;;;6.66;63.44;101306.66;4209272;28;20350;-61
2022/03/19 04:42:39;;;;;;;39.17;26.57;;;;;;;7.00;62.80;101296.63;4202589;28;20239;-62
2022/03/19 04:44:40;;;;;;;39.07;26.70;;;;;;;6.34;64.67;101329.78;4200784;28;20231;-61
2022/03/19 04:46:43;;;;;;;43.03;29.40;;;;;;;7.02;63.49;101276.22;4201606;28;20259;-61
2022/03/19 04:48:45;;;;;;;44.37;29.00;;;;;;;6.89;63.54;101292.00;4206181;28;20710;-60
2022/03/19 04:50:48;;;;;;;40.00;28.73;;;;;;;7.50;62.03;101256.41;4203582;28;20259;-61
2022/03/19 04:52:50;;;;;;;40.60;27.60;;;;;;;7.10;62.26;101291.59;4198494;28;20234;-60
2022/03/19 04:54:53;;;;;;;39.07;26.13;;;;;;;6.74;63.50;101316.78;4209218;28;20262;-61
2022/03/19 04:56:54;;;;;;;40.00;26.57;;;;;;;6.54;63.66;101302.97;4209219;28;20259;-58
2022/03/19 04:58:58;;;;;;;40.13;28.23;;;;;;;7.35;62.37;101268.88;4197943;28;20336;-61
2022/03/19 05:01:00;;;;;;;37.83;27.30;;;;;;;6.65;63.67;101315.56;4200736;28;20304;-60
2022/03/19 05:03:01;;;;;;;40.50;27.23;;;;;;;5.69;66.95;101352.06;4208912;28;20274;-61
2022/03/19 05:05:04;;;;;;;38.73;26.47;;;;;;;5.67;65.89;101314.31;4205799;28;20746;-59
2022/03/19 05:07:06;;;;;;;40.80;27.07;;;;;;;6.31;65.29;101322.03;4204338;28;20318;-62
2022/03/19 05:11:27;;;;;;;41.83;27.23;;;;;;;5.74;66.23;101304.28;4192339;28;20326;-59
2022/03/19 05:13:29;;;;;;;44.07;26.67;;;;;;;6.49;65.29;101256.66;4203925;28;20258;-62
2022/03/19 05:15:31;;;;;;;38.27;25.67;;;;;;;6.46;65.96;101252.38;4198913;28;20298;-62
2022/03/19 05:17:33;;;;;;;43.70;28.30;;;;;;;6.42;65.36;101258.81;4199266;28;20938;-62
2022/03/19 05:19:35;;;;;;;43.93;28.47;;;;;;;6.21;63.90;101284.75;4209378;28;20254;-61
2022/03/19 05:21:36;;;;;;;37.27;26.33;;;;;;;7.02;62.86;101241.00;4209175;28;20250;-58
2022/03/19 05:23:38;;;;;;;42.03;29.47;;;;;;;6.94;62.30;101251.22;4200817;28;20669;-59
2022/03/19 05:25:39;;;;;;;39.23;27.10;;;;;;;5.19;67.12;101295.06;4205640;28;20265;-60
2022/03/19 05:27:41;;;;;;;39.83;28.43;;;;;;;5.50;67.61;101317.94;4203441;28;20251;-61
2022/03/19 05:29:53;;;;;;;40.57;27.43;;;;;;;6.54;64.97;101236.91;4207544;28;20768;-61
2022/03/19 05:31:54;;;;;;;36.23;25.37;;;;;;;6.58;64.60;101247.28;4208604;28;20266;-60
2022/03/19 05:36:16;;;;;;;43.67;27.10;;;;;;;5.98;66.13;101304.63;4194140;28;20273;-61
2022/03/19 05:38:18;;;;;;;40.60;26.40;;;;;;;4.97;69.21;101321.78;4200156;28;20258;-57
2022/03/19 05:40:20;;;;;;;39.37;27.10;;;;;;;6.34;65.98;101232.03;4204807;28;20250;-60
2022/03/19 05:42:22;;;;;;;40.03;26.87;;;;;;;5.85;66.17;101298.38;4201602;28;20681;-59
2022/03/19 05:44:23;;;;;;;40.77;27.97;;;;;;;5.65;65.87;101295.09;4202535;28;20265;-61
2022/03/19 05:46:25;;;;;;;42.37;27.63;;;;;;;5.31;67.71;101297.00;4200620;28;20545;-61
2022/03/19 05:48:27;;;;;;;41.63;28.13;;;;;;;6.08;65.83;101258.25;4203294;28;20300;-59
2022/03/19 05:50:29;;;;;;;39.60;27.80;;;;;;;6.22;63.18;101244.19;4200203;28;20297;-60
2022/03/19 05:52:30;;;;;;;38.63;27.57;;;;;;;6.42;63.75;101240.31;4199689;28;20222;-60
2022/03/19 05:54:32;;;;;;;39.87;28.43;;;;;;;6.56;63.35;101234.19;4204589;28;20246;-63
2022/03/19 05:56:34;;;;;;;41.77;27.90;;;;;;;5.73;64.62;101258.56;4208267;28;20260;-59
2022/03/19 05:58:35;;;;;;;41.43;28.20;;;;;;;6.04;65.98;101271.72;4195649;28;20234;-61
2022/03/19 06:00:37;;;;;;;41.47;28.20;;;;;;;5.90;66.46;101283.97;4205151;28;20234;-62
2022/03/19 06:02:42;;;;;;;40.53;27.83;;;;;;;6.79;62.82;101229.22;4205478;28;20238;-58
2022/03/19 06:04:43;;;;;;;44.70;28.63;;;;;;;5.77;65.89;101282.97;4204639;28;20235;-61
2022/03/19 06:06:45;;;;;;;41.13;28.53;;;;;;;6.96;63.54;101192.00;4202129;28;21015;-62
2022/03/19 06:08:47;;;;;;;40.73;27.37;;;;;;;6.79;63.96;101221.28;4207453;28;20676;-60
2022/03/19 06:10:48;;;;;;;43.67;27.93;;;;;;;6.64;63.34;101257.50;4198711;28;20267;-61
2022/03/19 06:12:50;;;;;;;42.63;28.23;;;;;;;6.96;62.62;101230.84;4201246;28;20322;-61
2022/03/19 06:14:53;;;;;;;40.30;27.13;;;;;;;7.05;62.49;101232.88;4203954;28;20249;-60
2022/03/19 06:16:55;;;;;;;44.60;28.63;;;;;;;6.70;63.54;101263.25;4196780;28;20341;-60
2022/03/19 06:18:57;;;;;;;43.83;27.97;;;;;;;7.55;61.51;101214.59;4192244;28;20661;-62
2022/03/19 06:20:58;;;;;;;41.53;27.63;;;;;;;6.96;63.08;101247.53;4207704;28;20253;-60
2022/03/19 06:23:00;;;;;;;43.73;28.50;;;;;;;7.49;61.07;101207.91;4201538;28;20321;-59
2022/03/19 06:25:02;;;;;;;40.87;28.17;;;;;;;7.25;61.08;101227.13;4207951;28;20741;-58
2022/03/19 06:27:04;;;;;;;42.67;29.13;;;;;;;7.25;62.17;101250.94;4208150;28;20310;-60
2022/03/19 06:29:06;;;;;;;39.67;28.20;;;;;;;7.25;61.45;101258.88;4199385;28;20687;-61
2022/03/19 06:31:07;;;;;;;43.90;28.83;;;;;;;7.33;61.83;101245.16;4198746;28;20335;-58
2022/03/19 06:33:11;;;;;;;41.03;28.53;;;;;;;6.89;62.00;101236.47;4205140;28;20265;-59
2022/03/19 06:37:19;;;;;;;42.83;26.50;;;;;;;7.53;61.40;101235.00;4207075;28;20731;-59
2022/03/19 06:37:34;;;;;;;41.80;28.07;;;;;;;7.71;60.97;101217.06;4203186;28;20265;-60
2022/03/19 06:39:36;;;;;;;38.80;27.07;;;;;;;7.38;61.50;101240.41;4204286;28;20293;-60
2022/03/19 06:41:38;;;;;;;45.07;27.87;;;;;;;6.40;63.03;101271.28;4204655;28;20330;-60
2022/03/19 06:43:40;;;;;;;39.97;27.43;;;;;;;6.80;63.01;101279.34;4200591;28;20269;-60
2022/03/19 06:45:42;;;;;;;37.90;29.03;;;;;;;7.75;61.18;101234.41;4205877;28;20329;-62
2022/03/19 06:47:43;;;;;;;43.90;29.30;;;;;;;7.10;61.99;101266.00;4196297;28;20797;-60
2022/03/19 06:49:45;;;;;;;38.50;27.23;;;;;;;7.61;60.65;101225.63;4207901;28;20258;-61
2022/03/19 06:51:46;;;;;;;42.67;27.47;;;;;;;7.90;60.37;101211.34;4197278;28;20269;-62
2022/03/19 06:53:49;;;;;;;43.90;27.60;;;;;;;7.44;61.96;101255.00;4198511;28;20313;-60
2022/03/19 06:55:52;;;;;;;37.83;26.40;;;;;;;7.31;61.05;101236.47;4207551;28;20269;-60
2022/03/19 06:57:53;;;;;;;40.50;28.27;;;;;;;8.27;59.68;101228.19;4200845;28;20228;-62
2022/03/19 06:59:55;;;;;;;37.13;26.60;;;;;;;7.79;61.01;101230.63;4192603;28;20318;-59
2022/03/19 07:01:57;;;;;;;41.13;27.63;;;;;;;7.64;60.88;101225.41;4206892;28;20678;-62
2022/03/19 07:03:58;;;;;;;38.23;26.73;;;;;;;7.88;60.08;101229.13;4199719;28;20300;-61
2022/03/19 07:06:00;;;;;;;39.93;28.53;;;;;;;6.75;62.81;101292.00;4206379;28;20718;-61
2022/03/19 07:08:22;;;;;;;40.93;26.33;;;;;;;7.28;61.53;101260.47;4198975;28;20245;-61
2022/03/19 07:10:24;;;;;;;44.63;27.77;;;;;;;7.30;61.89;101249.78;4207341;28;20254;-61
2022/03/19 07:12:25;;;;;;;39.00;27.67;;;;;;;7.51;60.62;101242.22;4204101;28;20236;-62
2022/03/19 07:14:27;;;;;;;39.43;28.10;;;;;;;8.13;59.45;101209.75;4202179;28;20257;-59
2022/03/19 07:16:29;;;;;;;41.67;27.30;;;;;;;6.27;63.01;101275.63;4198376;28;20703;-59
2022/03/19 07:18:31;;;;;;;36.70;26.37;;;;;;;7.81;60.39;101224.25;4203664;28;20213;-63
2022/03/19 07:20:33;;;;;;;38.70;28.57;;;;;;;8.03;58.70;101189.19;4211199;28;20230;-61
2022/03/19 07:22:58;;;;;;;38.83;26.77;;;;;;;7.14;61.62;101261.34;4206605;28;20210;-61
2022/03/19 07:24:59;;;;;;;41.43;26.60;;;;;;;6.45;62.83;101287.72;4210418;28;20231;-60
2022/03/19 07:27:01;;;;;;;39.17;26.40;;;;;;;6.94;62.67;101253.84;4210638;28;20542;-60
2022/03/19 07:29:03;;;;;;;40.60;25.60;;;;;;;7.41;61.87;101226.97;4202617;28;20304;-61
2022/03/19 07:31:04;;;;;;;38.77;26.10;;;;;;;7.00;62.21;101274.63;4194414;28;20314;-58
2022/03/19 07:33:08;;;;;;;39.10;26.37;;;;;;;7.87;59.56;101193.88;4201821;28;20600;-61
2022/03/19 07:35:12;;;;;;;37.67;25.83;;;;;;;7.61;60.03;101216.81;4210088;28;20261;-62
2022/03/19 07:37:14;;;;;;;40.37;26.17;;;;;;;6.84;62.64;101286.16;4209069;28;20226;-61
2022/03/19 07:39:16;;;;;;;40.53;28.27;;;;;;;7.60;61.03;101228.38;4198865;28;20330;-60
2022/03/19 07:43:38;;;;;;;41.10;25.83;;;;;;;7.75;59.91;101229.13;4208589;22;20258;-32
2022/03/19 07:45:41;;;;;;;37.67;26.20;;;;;;;6.77;62.19;101286.63;4194018;28;20234;-32
2022/03/19 07:47:43;;;;;;;38.30;26.40;;;;;;;6.97;61.39;101280.13;4194282;28;20238;-32
2022/03/19 07:49:45;;;;;;;38.40;25.60;;;;;;;8.03;60.02;101223.63;4194478;28;20231;-32
2022/03/19 07:51:51;;;;;;;38.13;27.07;;;;;;;8.62;57.50;101173.63;4194501;28;20227;-32
2022/03/19 07:53:53;;;;;;;38.47;24.87;;;;;;;8.70;58.20;101211.88;4193870;28;20242;-32
2022/03/19 07:55:55;;;;;;;36.27;26.20;;;;;;;7.28;60.92;101258.66;4191721;28;20575;-32
2022/03/19 07:57:57;;;;;;;41.47;25.60;;;;;;;8.28;58.94;101213.13;4189975;28;20235;-33
2022/03/19 07:59:59;;;;;;;38.13;26.00;;;;;;;7.44;59.39;101218.78;4186400;28;20238;-32
2022/03/19 08:02:00;;;;;;;38.50;24.80;;;;;;;7.80;58.54;101213.75;4194112;28;20264;-31
2022/03/19 08:04:02;;;;;;;36.67;24.10;;;;;;;7.28;60.23;101274.53;4189249;28;20231;-32
2022/03/19 08:06:05;;;;;;;38.40;24.67;;;;;;;7.37;59.33;101256.38;4193123;28;20235;-30
2022/03/19 08:08:07;;;;;;;33.53;24.70;;;;;;;7.55;59.98;101249.03;4194739;28;20242;-31
2022/03/19 08:10:10;;;;;;;35.20;23.53;;;;;;;7.94;59.49;101226.09;4195422;28;20246;-32
2022/03/19 08:12:11;;;;;;;34.60;23.57;;;;;;;8.74;57.14;101205.44;4193401;28;20236;-32
2022/03/19 08:14:14;;;;;;;35.73;24.27;;;;;;;7.83;59.37;101232.97;4194094;28;20235;-32
2022/03/19 08:16:16;;;;;;;28.43;20.30;;;;;;;7.88;58.17;101232.63;4194386;28;20231;-31
2022/03/19 08:18:18;;;;;;;30.27;22.33;;;;;;;7.51;58.77;101226.34;4188254;28;20232;-32
2022/03/19 08:20:20;;;;;;;33.67;23.13;;;;;;;8.12;58.79;101227.47;4193859;28;20227;-32
2022/03/19 08:22:21;;;;;;;30.23;20.30;;;;;;;7.57;59.39;101237.38;4190671;28;20646;-31
2022/03/19 08:24:25;;;;;;;31.50;22.67;;;;;;;8.09;58.87;101225.00;4193192;28;20265;-33
2022/03/19 08:26:26;;;;;;;32.37;21.00;;;;;;;8.00;58.16;101218.56;4193905;28;20231;-32
2022/03/19 08:28:28;;;;;;;30.00;21.70;;;;;;;8.75;56.37;101185.88;4193485;28;20239;-30
2022/03/19 08:30:30;;;;;;;29.97;21.03;;;;;;;7.42;58.06;101249.81;4192884;28;20558;-32
2022/03/19 08:32:31;;;;;;;31.97;21.77;;;;;;;8.02;56.61;101191.97;4193696;28;20207;-32
2022/03/19 08:34:33;;;;;;;31.10;22.53;;;;;;;7.64;58.43;101248.38;4193257;28;20273;-32
2022/03/19 08:36:35;;;;;;;33.83;21.73;;;;;;;8.63;56.02;101164.72;4193380;28;20253;-32
2022/03/19 08:40:57;;;;;;;29.80;20.60;;;;;;;9.16;55.21;101190.91;4193791;28;20304;-33
2022/03/19 08:42:59;;;;;;;32.67;22.03;;;;;;;8.53;56.31;101165.38;4188842;28;20289;-32
2022/03/19 08:45:01;;;;;;;34.63;21.90;;;;;;;7.72;58.25;101234.66;4193326;28;20242;-32
2022/03/19 08:47:02;;;;;;;30.97;21.13;;;;;;;8.18;57.31;101205.81;4193676;28;20235;-33
2022/03/19 08:49:04;;;;;;;28.37;20.00;;;;;;;8.67;56.03;101187.41;4185004;28;20256;-32
2022/03/19 08:53:27;;;;;;;29.17;20.30;;;;;;;8.47;54.50;101160.50;4188337;28;20228;-32
2022/03/19 08:55:29;;;;;;;31.13;20.87;;;;;;;8.48;55.44;101201.16;4190428;28;20254;-32
2022/03/19 08:57:31;;;;;;;28.67;21.23;;;;;;;8.94;55.91;101177.41;4192145;28;20227;-33
2022/03/19 08:59:32;;;;;;;30.57;21.07;;;;;;;8.37;55.68;101180.69;4193587;28;20227;-32
2022/03/19 09:01:34;;;;;;;27.37;20.33;;;;;;;8.59;55.09;101137.56;4192960;28;20708;-32
2022/03/19 09:03:36;;;;;;;32.53;20.60;;;;;;;8.76;55.90;101192.91;4191521;28;20242;-32
2022/03/19 09:05:37;;;;;;;29.27;21.60;;;;;;;8.98;53.94;101175.41;4185547;28;20242;-32
2022/03/19 09:07:39;;;;;;;27.60;20.37;;;;;;;8.25;54.61;101194.78;4182895;28;20239;-32
2022/03/19 09:09:41;;;;;;;30.73;20.33;;;;;;;9.74;53.75;101181.22;4188105;28;20231;-32
2022/03/19 09:12:04;;;;;;;28.37;19.77;;;;;;;9.38;52.67;101156.47;4184783;28;20266;-30
2022/03/19 09:14:07;;;;;;;29.70;20.63;;;;;;;9.45;53.96;101162.16;4192987;28;20289;-32
2022/03/19 09:16:08;;;;;;;30.17;21.37;;;;;;;9.68;53.77;101161.25;4194955;28;20242;-31
2022/03/19 09:18:10;;;;;;;30.50;19.83;;;;;;;9.76;52.22;101120.00;4188120;28;20239;-31
2022/03/19 09:20:12;;;;;;;29.80;21.97;;;;;;;9.21;53.90;101171.00;4192868;28;20750;-32
2022/03/19 09:22:14;;;;;;;31.03;21.40;;;;;;;9.33;52.68;101132.94;4186755;28;20243;-32
2022/03/19 09:24:16;;;;;;;28.40;20.87;;;;;;;9.16;54.07;101159.06;4192795;28;20239;-32
2022/03/19 09:26:18;;;;;;;33.17;21.37;;;;;;;9.42;53.70;101178.31;4192848;28;20243;-32
2022/03/19 09:28:20;;;;;;;31.03;20.33;;;;;;;9.35;52.77;101147.91;4192791;28;20231;-32
2022/03/19 09:30:22;;;;;;;32.90;21.53;;;;;;;9.98;52.20;101153.69;4192723;28;20228;-32
2022/03/19 09:32:23;;;;;;;31.33;20.63;;;;;;;8.94;53.84;101140.28;4192701;28;20231;-32
2022/03/19 09:34:25;;;;;;;31.33;21.50;;;;;;;8.42;54.73;101196.28;4192495;28;20301;-32
2022/03/19 09:36:27;;;;;;;31.27;20.53;;;;;;;8.77;53.70;101162.75;4192335;28;20235;-32